createdAt,value
2023-05-04T00:02:07.832Z,99.90
2023-05-04T00:04:35.437Z,99.70
2023-05-04T00:07:04.408Z,99.40
2023-05-04T00:09:33.087Z,98.90
2023-05-04T00:12:00.709Z,98.50
2023-05-04T00:14:28.263Z,98.20
2023-05-04T00:16:55.962Z,98.40
2023-05-04T00:19:23.539Z,98.20
2023-05-04T00:21:51.043Z,98.30
2023-05-04T00:24:19.112Z,97.70
2023-05-04T00:26:46.710Z,97.50
2023-05-04T00:29:14.936Z,97.30
2023-05-04T00:31:43.193Z,97.60
2023-05-04T00:34:10.824Z,97.50
2023-05-04T00:36:38.413Z,96.90
2023-05-04T00:39:06.451Z,96.60
2023-05-04T00:41:34.058Z,96.40
2023-05-04T00:44:01.579Z,96.50
2023-05-04T00:46:29.667Z,95.90
2023-05-04T00:48:57.244Z,95.80
2023-05-04T00:51:24.899Z,95.20
2023-05-04T00:53:52.613Z,95.10
2023-05-04T00:56:20.142Z,95.20
2023-05-04T00:58:47.687Z,94.90
2023-05-04T01:01:15.539Z,94.90
2023-05-04T01:03:43.236Z,94.60
2023-05-04T01:06:10.804Z,94.20
2023-05-04T01:08:38.465Z,94.00
2023-05-04T01:11:06.179Z,93.80
2023-05-04T01:13:34.319Z,94.00
2023-05-04T01:16:03.474Z,93.80
2023-05-04T01:18:31.038Z,93.80
2023-05-04T01:20:58.776Z,93.50
2023-05-04T01:23:26.489Z,93.00
2023-05-04T01:25:54.040Z,93.00
2023-05-04T01:28:22.717Z,93.20
2023-05-04T01:30:50.550Z,92.50
2023-05-04T01:33:19.101Z,92.50
2023-05-04T01:35:46.876Z,92.00
2023-05-04T01:38:16.355Z,91.80
2023-05-04T01:40:44.155Z,91.30
2023-05-04T01:43:20.457Z,90.80
2023-05-04T01:45:48.678Z,90.80
2023-05-04T01:48:21.542Z,90.60
2023-05-04T01:50:51.944Z,90.70
2023-05-04T01:53:19.522Z,90.60
2023-05-04T01:55:47.677Z,90.20
2023-05-04T01:58:17.702Z,89.90
2023-05-04T02:00:48.125Z,89.30
2023-05-04T02:03:18.555Z,88.60
2023-05-04T02:05:51.921Z,88.40
2023-05-04T02:08:20.972Z,88.10
2023-05-04T02:10:51.498Z,86.70
2023-05-04T02:13:28.303Z,85.50
2023-05-04T02:16:03.164Z,85.00
2023-05-04T02:18:31.795Z,84.80
2023-05-04T02:20:59.324Z,81.50
2023-05-04T02:23:27.431Z,83.90
2023-05-04T02:25:57.001Z,83.30
2023-05-04T02:28:26.650Z,79.80
2023-05-04T02:30:55.146Z,76.70
2023-05-04T02:33:24.040Z,76.30
2023-05-04T02:35:53.872Z,75.90
2023-05-04T02:38:21.955Z,75.20
2023-05-04T02:40:52.702Z,74.70
2023-05-04T02:43:22.091Z,75.20
2023-05-04T02:45:49.660Z,73.80
2023-05-04T02:48:19.881Z,73.80
2023-05-04T02:50:49.932Z,72.40
2023-05-04T02:53:19.869Z,75.10
2023-05-04T02:55:47.688Z,74.00
2023-05-04T02:58:19.255Z,72.70
2023-05-04T03:00:47.536Z,73.40
2023-05-04T03:03:15.959Z,71.70
2023-05-04T03:05:47.627Z,72.30
2023-05-04T03:08:15.208Z,72.50
2023-05-04T03:10:44.125Z,72.70
2023-05-04T03:13:11.989Z,73.60
2023-05-04T03:15:48.335Z,72.50
2023-05-04T03:18:16.909Z,72.20
2023-05-04T03:20:48.320Z,70.90
2023-05-04T03:23:17.130Z,69.10
2023-05-04T03:25:52.396Z,68.60
2023-05-04T03:28:22.180Z,69.20
2023-05-04T03:30:51.702Z,69.40
2023-05-04T03:33:21.571Z,69.80
2023-05-04T03:36:01.090Z,69.80
2023-05-04T03:38:30.875Z,68.50
2023-05-04T03:41:00.381Z,68.30
2023-05-04T03:43:28.197Z,68.10
2023-05-04T03:45:57.739Z,66.80
2023-05-04T03:48:26.058Z,67.40
2023-05-04T03:50:53.966Z,67.30
2023-05-04T03:53:22.437Z,67.60
2023-05-04T03:55:50.045Z,66.80
2023-05-04T03:58:18.389Z,66.00
2023-05-04T04:00:46.589Z,64.20
2023-05-04T04:03:17.264Z,64.80
2023-05-04T04:05:46.500Z,64.90
2023-05-04T04:08:14.219Z,65.10
2023-05-04T04:10:41.859Z,64.60
2023-05-04T04:13:09.863Z,63.20
2023-05-04T04:15:37.612Z,62.90
2023-05-04T04:18:05.234Z,63.80
2023-05-04T04:20:33.114Z,62.40
2023-05-04T04:23:00.859Z,62.40
2023-05-04T04:25:28.552Z,61.60
2023-05-04T04:27:56.474Z,62.10
2023-05-04T04:30:24.261Z,62.40
2023-05-04T04:32:51.931Z,61.40
2023-05-04T04:35:19.565Z,61.50
2023-05-04T04:37:47.189Z,62.50
2023-05-04T04:40:14.827Z,61.10
2023-05-04T04:42:43.161Z,60.40
2023-05-04T04:45:11.029Z,59.60
2023-05-04T04:47:38.738Z,60.10
2023-05-04T04:50:07.061Z,60.80
2023-05-04T04:52:34.901Z,60.20
2023-05-04T04:55:02.480Z,60.30
2023-05-04T04:57:31.723Z,57.50
2023-05-04T04:59:59.655Z,59.10
2023-05-04T05:02:27.330Z,58.30
2023-05-04T05:04:55.239Z,57.40
2023-05-04T05:07:23.137Z,56.90
2023-05-04T05:09:50.705Z,57.40
2023-05-04T05:12:19.049Z,55.70
2023-05-04T05:14:46.834Z,55.70
2023-05-04T05:17:14.396Z,55.40
2023-05-04T05:19:42.344Z,55.00
2023-05-04T05:22:10.017Z,54.50
2023-05-04T05:24:37.565Z,54.50
2023-05-04T05:27:05.176Z,54.70
2023-05-04T05:29:32.852Z,57.30
2023-05-04T05:32:00.416Z,56.90
2023-05-04T05:34:28.247Z,55.00
2023-05-04T05:36:56.092Z,55.20
2023-05-04T05:39:23.659Z,56.30
2023-05-04T05:41:51.452Z,55.70
2023-05-04T05:44:19.197Z,56.30
2023-05-04T05:46:46.869Z,56.30
2023-05-04T05:49:14.590Z,56.30
2023-05-04T05:51:42.328Z,56.10
2023-05-04T05:54:09.888Z,55.90
2023-05-04T05:56:38.635Z,56.50
2023-05-04T05:59:06.479Z,57.60
2023-05-04T06:01:34.065Z,56.20
2023-05-04T06:04:01.884Z,57.40
2023-05-04T06:06:29.683Z,58.00
2023-05-04T06:08:57.223Z,58.10
2023-05-04T06:11:24.883Z,58.40
2023-05-04T06:13:52.634Z,58.80
2023-05-04T06:16:21.268Z,58.00
2023-05-04T06:18:49.004Z,58.40
2023-05-04T06:21:17.176Z,58.40
2023-05-04T06:23:44.742Z,57.60
2023-05-04T06:26:12.359Z,59.30
2023-05-04T06:28:40.111Z,58.10
2023-05-04T06:31:07.753Z,57.90
2023-05-04T06:33:35.587Z,58.20
2023-05-04T06:36:03.334Z,57.20
2023-05-04T06:38:31.034Z,58.30
2023-05-04T06:40:58.728Z,58.00
2023-05-04T06:43:26.636Z,58.10
2023-05-04T06:45:54.350Z,57.60
2023-05-04T06:48:22.052Z,56.50
2023-05-04T06:50:49.970Z,56.40
2023-05-04T06:53:17.483Z,56.40
2023-05-04T06:55:45.123Z,56.10
2023-05-04T06:58:12.762Z,55.40
2023-05-04T07:00:40.617Z,55.30
2023-05-04T07:03:08.284Z,54.70
2023-05-04T07:05:36.274Z,54.30
2023-05-04T07:08:03.886Z,55.00
2023-05-04T07:10:31.998Z,55.20
2023-05-04T07:12:59.768Z,54.80
2023-05-04T07:15:27.453Z,55.00
2023-05-04T07:17:55.727Z,56.00
2023-05-04T07:20:25.822Z,54.30
2023-05-04T07:22:53.937Z,53.00
2023-05-04T07:25:21.671Z,53.00
2023-05-04T07:27:49.390Z,52.10
2023-05-04T07:30:17.046Z,51.80
2023-05-04T07:32:44.709Z,52.70
2023-05-04T07:35:12.366Z,52.40
2023-05-04T07:37:39.838Z,53.60
2023-05-04T07:40:07.968Z,52.70
2023-05-04T07:42:35.724Z,52.60
2023-05-04T07:45:03.597Z,52.50
2023-05-04T07:47:31.224Z,52.10
2023-05-04T07:49:59.098Z,52.10
2023-05-04T07:52:26.774Z,52.40
2023-05-04T07:54:54.375Z,52.50
2023-05-04T07:57:22.604Z,52.00
2023-05-04T07:59:50.226Z,52.80
2023-05-04T08:02:18.214Z,52.60
2023-05-04T08:04:46.417Z,52.90
2023-05-04T08:07:14.029Z,51.20
2023-05-04T08:09:42.221Z,50.80
2023-05-04T08:12:10.101Z,51.70
2023-05-04T08:14:38.295Z,52.90
2023-05-04T08:17:06.271Z,52.90
2023-05-04T08:19:33.976Z,52.40
2023-05-04T08:22:01.885Z,52.20
2023-05-04T08:24:29.479Z,53.40
2023-05-04T08:27:07.161Z,53.70
2023-05-04T08:29:36.202Z,54.20
2023-05-04T08:32:04.272Z,55.30
2023-05-04T08:34:31.880Z,55.90
2023-05-04T08:36:59.478Z,57.60
2023-05-04T08:39:27.178Z,55.00
2023-05-04T08:41:54.740Z,54.70
2023-05-04T08:44:22.321Z,53.80
2023-05-04T08:46:50.199Z,54.00
2023-05-04T08:49:17.831Z,53.00
2023-05-04T08:51:45.544Z,53.30
2023-05-04T08:54:13.381Z,54.20
2023-05-04T08:56:40.972Z,55.00
2023-05-04T08:59:08.545Z,55.70
2023-05-04T09:01:36.290Z,56.00
2023-05-04T09:04:03.964Z,56.30
2023-05-04T09:06:31.543Z,56.30
2023-05-04T09:08:59.539Z,55.40
2023-05-04T09:11:27.095Z,55.40
2023-05-04T09:13:54.686Z,55.50
2023-05-04T09:16:22.397Z,55.80
2023-05-04T09:18:49.980Z,55.30
2023-05-04T09:21:17.537Z,56.90
2023-05-04T09:23:45.207Z,55.80
2023-05-04T09:26:12.863Z,55.90
2023-05-04T09:28:40.444Z,55.50
2023-05-04T09:31:08.653Z,53.80
2023-05-04T09:33:37.248Z,54.70
2023-05-04T09:36:04.809Z,53.80
2023-05-04T09:38:32.498Z,55.30
2023-05-04T09:41:00.158Z,55.60
2023-05-04T09:43:27.864Z,56.40
2023-05-04T09:45:55.780Z,57.10
2023-05-04T09:48:23.374Z,56.70
2023-05-04T09:50:51.046Z,57.60
2023-05-04T09:53:18.821Z,59.80
2023-05-04T09:55:46.514Z,59.60
2023-05-04T09:58:14.087Z,60.50
2023-05-04T10:00:51.097Z,60.10
2023-05-04T10:03:18.786Z,60.60
2023-05-04T10:05:46.677Z,60.20
2023-05-04T10:08:14.331Z,60.10
2023-05-04T10:10:41.927Z,60.50
2023-05-04T10:13:10.391Z,60.10
2023-05-04T10:15:38.013Z,60.90
2023-05-04T10:18:05.557Z,61.20
2023-05-04T10:20:33.518Z,60.90
2023-05-04T10:23:01.093Z,60.50
2023-05-04T10:25:28.671Z,61.20
2023-05-04T10:27:56.316Z,61.40
2023-05-04T10:30:24.004Z,61.70
2023-05-04T10:32:52.026Z,61.40
2023-05-04T10:35:19.660Z,61.60
2023-05-04T10:38:05.536Z,61.60
2023-05-04T10:40:53.486Z,62.40
2023-05-04T10:43:20.896Z,62.20
2023-05-04T10:45:53.511Z,61.60
2023-05-04T10:48:21.668Z,62.00
2023-05-04T10:51:07.887Z,61.90
2023-05-04T10:53:36.370Z,60.30
2023-05-04T10:56:09.533Z,61.00
2023-05-04T10:58:50.408Z,61.40
2023-05-04T11:01:25.371Z,61.20
2023-05-04T11:03:56.900Z,61.70
2023-05-04T11:06:28.139Z,61.20
2023-05-04T11:09:03.061Z,60.80
2023-05-04T11:11:38.667Z,61.40
2023-05-04T11:14:14.230Z,60.20
2023-05-04T11:16:46.974Z,61.40
2023-05-04T11:19:14.860Z,61.70
2023-05-04T11:21:42.714Z,62.20
2023-05-04T11:24:10.450Z,62.10
2023-05-04T11:26:40.795Z,62.00
2023-05-04T11:29:17.652Z,61.10
2023-05-04T11:31:45.519Z,61.10
2023-05-04T11:34:13.764Z,60.30
2023-05-04T11:36:43.070Z,60.70
2023-05-04T11:39:11.138Z,61.50
2023-05-04T11:41:38.717Z,61.20
2023-05-04T11:44:08.846Z,61.20
2023-05-04T11:46:36.722Z,60.40
2023-05-04T11:49:04.644Z,59.70
2023-05-04T11:51:32.923Z,59.20
2023-05-04T11:54:00.984Z,58.90
2023-05-04T11:56:28.580Z,58.80
2023-05-04T11:58:56.283Z,59.30
2023-05-04T12:01:24.290Z,59.40
2023-05-04T12:03:54.165Z,59.70
2023-05-04T12:06:22.226Z,60.00
2023-05-04T12:08:50.113Z,60.30
2023-05-04T12:11:18.028Z,61.10
2023-05-04T12:13:45.755Z,61.00
2023-05-04T12:16:13.650Z,61.20
2023-05-04T12:18:42.215Z,61.30
2023-05-04T12:21:09.783Z,61.30
2023-05-04T12:23:37.467Z,62.10
2023-05-04T12:26:05.112Z,62.80
2023-05-04T12:28:32.649Z,63.20
2023-05-04T12:31:00.438Z,64.00
2023-05-04T12:33:28.096Z,64.10
2023-05-04T12:35:55.680Z,64.70
2023-05-04T12:38:23.340Z,65.30
2023-05-04T12:40:51.939Z,65.60
2023-05-04T12:43:20.984Z,66.10
2023-05-04T12:45:48.935Z,67.20
2023-05-04T12:48:16.596Z,67.40
2023-05-04T12:50:44.569Z,68.40
2023-05-04T12:53:12.182Z,69.40
2023-05-04T12:55:40.115Z,69.90
2023-05-04T12:58:07.707Z,70.10
2023-05-04T13:00:35.699Z,70.40
2023-05-04T13:03:03.955Z,70.00
2023-05-04T13:05:31.835Z,69.50
2023-05-04T13:07:59.687Z,69.90
2023-05-04T13:10:27.332Z,70.60
2023-05-04T13:12:55.900Z,70.70
2023-05-04T13:15:23.937Z,71.00
2023-05-04T13:17:51.905Z,71.40
2023-05-04T13:20:19.747Z,71.90
2023-05-04T13:22:49.717Z,72.60
2023-05-04T13:25:17.632Z,72.50
2023-05-04T13:27:45.211Z,72.70
2023-05-04T13:30:13.117Z,72.70
2023-05-04T13:32:40.898Z,72.80
2023-05-04T13:35:08.754Z,73.30
2023-05-04T13:37:37.577Z,74.00
2023-05-04T13:40:05.312Z,74.60
2023-05-04T13:42:35.690Z,75.10
2023-05-04T13:45:04.859Z,75.50
2023-05-04T13:47:32.921Z,76.70
2023-05-04T13:50:02.261Z,77.40
2023-05-04T13:52:29.959Z,77.50
2023-05-04T13:54:57.918Z,77.70
2023-05-04T13:57:25.700Z,78.60
2023-05-04T14:02:38.616Z,79.00
2023-05-04T14:05:06.716Z,78.80
2023-05-04T14:07:34.930Z,77.50
2023-05-04T14:10:03.127Z,77.70
2023-05-04T14:12:32.153Z,77.90
2023-05-04T14:15:00.122Z,77.70
2023-05-04T14:17:28.441Z,77.80
2023-05-04T14:19:56.514Z,77.80
2023-05-04T14:22:24.420Z,77.80
2023-05-04T14:24:52.332Z,77.60
2023-05-04T14:27:20.217Z,77.00
2023-05-04T14:29:48.048Z,76.50
2023-05-04T14:32:15.983Z,75.10
2023-05-04T14:34:44.130Z,74.30
2023-05-04T14:37:11.756Z,73.40
2023-05-04T14:39:39.990Z,73.40
2023-05-04T14:42:07.610Z,73.70
2023-05-04T14:44:36.159Z,73.00
2023-05-04T14:47:05.463Z,73.50
2023-05-04T14:49:37.840Z,73.00
2023-05-04T14:52:05.703Z,72.00
2023-05-04T14:54:33.580Z,72.00
2023-05-04T14:57:02.025Z,71.40
2023-05-04T14:59:29.696Z,71.70
2023-05-04T15:01:57.265Z,71.30
2023-05-04T15:04:26.984Z,71.00
2023-05-04T15:06:55.773Z,70.30
2023-05-04T15:09:23.383Z,70.80
2023-05-04T15:11:51.050Z,70.50
2023-05-04T15:14:18.759Z,70.20
2023-05-04T15:16:46.596Z,69.90
2023-05-04T15:19:14.707Z,70.20
2023-05-04T15:21:42.481Z,69.90
2023-05-04T15:24:10.263Z,69.60
2023-05-04T15:26:38.730Z,69.80
2023-05-04T15:29:06.392Z,70.10
2023-05-04T15:31:34.130Z,70.00
2023-05-04T15:34:02.092Z,71.00
2023-05-04T15:36:29.789Z,71.20
2023-05-04T15:38:57.344Z,71.50
2023-05-04T15:41:25.024Z,72.30
2023-05-04T15:43:52.994Z,72.90
2023-05-04T15:46:20.631Z,74.20
2023-05-04T15:48:48.410Z,75.90
2023-05-04T15:51:16.338Z,76.10
2023-05-04T15:53:44.656Z,77.10
2023-05-04T15:56:12.976Z,77.70
2023-05-04T15:58:42.129Z,78.20
2023-05-04T16:01:11.387Z,78.30
2023-05-04T16:03:40.319Z,79.30
2023-05-04T16:06:08.505Z,79.40
2023-05-04T16:08:36.627Z,79.30
2023-05-04T16:11:04.710Z,79.70
2023-05-04T16:13:33.789Z,80.80
2023-05-04T16:16:01.706Z,82.00
2023-05-04T16:18:29.724Z,82.20
2023-05-04T16:20:57.572Z,82.00
2023-05-04T16:23:26.020Z,81.40
2023-05-04T16:25:54.483Z,80.90
2023-05-04T16:28:22.694Z,80.70
2023-05-04T16:30:50.347Z,80.70
2023-05-04T16:33:18.112Z,81.20
2023-05-04T16:35:45.955Z,81.90
2023-05-04T16:38:13.458Z,82.40
2023-05-04T16:40:41.632Z,82.40
2023-05-04T16:43:09.371Z,82.00
2023-05-04T16:45:36.849Z,82.10
2023-05-04T16:48:04.793Z,82.10
2023-05-04T16:50:35.422Z,82.20
2023-05-04T16:53:03.181Z,82.70
2023-05-04T16:55:30.778Z,83.20
2023-05-04T16:57:58.587Z,83.50
2023-05-04T17:00:26.276Z,84.10
2023-05-04T17:02:54.211Z,83.60
2023-05-04T17:05:22.045Z,83.90
2023-05-04T17:07:49.833Z,84.00
2023-05-04T17:10:17.735Z,84.80
2023-05-04T17:12:45.800Z,85.00
2023-05-04T17:15:13.525Z,84.90
2023-05-04T17:17:41.319Z,85.40
2023-05-04T17:20:09.425Z,86.20
2023-05-04T17:25:19.209Z,86.60
2023-05-04T17:27:46.965Z,87.30
2023-05-04T17:30:14.664Z,87.50
2023-05-04T17:32:42.684Z,87.40
2023-05-04T17:35:21.056Z,87.50
2023-05-04T17:37:53.977Z,86.80
2023-05-04T17:40:23.904Z,86.50
2023-05-04T17:42:51.505Z,86.30
2023-05-04T17:45:19.262Z,86.40
2023-05-04T17:47:46.917Z,85.80
2023-05-04T17:50:14.602Z,84.60
2023-05-04T17:52:42.798Z,84.30
2023-05-04T17:55:10.671Z,83.60
2023-05-04T17:57:39.415Z,83.40
2023-05-04T18:00:08.068Z,82.70
2023-05-04T18:02:39.512Z,82.60
2023-05-04T18:05:08.748Z,82.00
2023-05-04T18:07:37.828Z,80.80
2023-05-04T18:10:06.185Z,80.40
2023-05-04T18:12:35.647Z,80.40
2023-05-04T18:15:06.554Z,80.80
2023-05-04T18:17:34.630Z,80.10
2023-05-04T18:20:04.465Z,80.30
2023-05-04T18:22:32.964Z,79.90
2023-05-04T18:25:00.808Z,79.20
2023-05-04T18:27:30.043Z,78.90
2023-05-04T18:29:59.157Z,78.70
2023-05-04T18:32:27.191Z,78.20
2023-05-04T18:34:55.802Z,78.80
2023-05-04T18:37:24.583Z,79.30
2023-05-04T18:39:52.818Z,79.60
2023-05-04T18:42:21.276Z,80.00
2023-05-04T18:44:49.091Z,80.10
2023-05-04T18:47:16.746Z,80.00
2023-05-04T18:49:45.413Z,81.60
2023-05-04T18:52:13.375Z,80.80
2023-05-04T18:54:41.442Z,80.80
2023-05-04T18:57:10.099Z,81.10
2023-05-04T18:59:38.739Z,81.00
2023-05-04T19:02:06.272Z,81.20
2023-05-04T19:04:34.478Z,81.10
2023-05-04T19:07:02.050Z,81.20
2023-05-04T19:09:29.809Z,81.20
2023-05-04T19:11:57.642Z,81.50
2023-05-04T19:14:25.365Z,81.50
2023-05-04T19:16:53.008Z,81.90
2023-05-04T19:19:20.983Z,82.00
2023-05-04T19:21:50.807Z,81.70
2023-05-04T19:24:18.616Z,81.20
2023-05-04T19:26:46.446Z,81.10
2023-05-04T19:29:14.063Z,80.60
2023-05-04T19:31:42.012Z,80.20
2023-05-04T19:34:10.059Z,79.90
2023-05-04T19:36:37.911Z,80.10
2023-05-04T19:39:06.157Z,79.80
2023-05-04T19:41:35.780Z,79.90
2023-05-04T19:44:03.826Z,80.00
2023-05-04T19:46:32.143Z,80.30
2023-05-04T19:48:59.859Z,80.50
2023-05-04T19:51:28.250Z,80.80
2023-05-04T19:53:55.820Z,80.30
2023-05-04T19:56:23.850Z,80.30
2023-05-04T19:58:51.446Z,80.40
2023-05-04T20:01:19.211Z,80.70
2023-05-04T20:03:47.327Z,81.30
2023-05-04T20:06:15.071Z,80.70
2023-05-04T20:08:45.732Z,80.70
2023-05-04T20:11:14.520Z,80.70
2023-05-04T20:13:43.985Z,80.70
2023-05-04T20:16:13.729Z,80.70
2023-05-04T20:18:41.853Z,80.60
2023-05-04T20:21:16.851Z,80.70
2023-05-04T20:23:46.665Z,80.40
2023-05-04T20:26:22.327Z,80.30
2023-05-04T20:28:56.669Z,80.30
2023-05-04T20:31:30.039Z,80.20
2023-05-04T20:34:00.165Z,80.60
2023-05-04T20:36:32.067Z,81.00
2023-05-04T20:39:02.849Z,81.60
2023-05-04T20:41:32.420Z,81.90
2023-05-04T20:44:01.349Z,82.00
2023-05-04T20:46:32.043Z,81.70
2023-05-04T20:49:00.192Z,81.80
2023-05-04T20:51:28.066Z,81.70
2023-05-04T20:54:01.943Z,81.70
2023-05-04T20:56:29.887Z,82.20
2023-05-04T20:58:57.822Z,82.40
2023-05-04T21:01:26.131Z,82.90
2023-05-04T21:03:54.575Z,82.80
2023-05-04T21:06:23.279Z,82.70
2023-05-04T21:08:51.514Z,83.50
2023-05-04T21:11:21.275Z,83.20
2023-05-04T21:13:49.653Z,83.60
2023-05-04T21:16:18.149Z,83.60
2023-05-04T21:18:46.015Z,83.50
2023-05-04T21:21:14.688Z,83.60
2023-05-04T21:23:42.982Z,83.40
2023-05-04T21:26:10.902Z,83.70
2023-05-04T21:28:38.848Z,84.10
2023-05-04T21:31:07.178Z,84.40
2023-05-04T21:33:35.729Z,84.20
2023-05-04T21:36:03.609Z,84.40
2023-05-04T21:38:31.430Z,84.00
2023-05-04T21:40:59.139Z,84.20
2023-05-04T21:43:27.033Z,84.50
2023-05-04T21:45:55.766Z,84.90
2023-05-04T21:48:24.530Z,85.30
2023-05-04T21:50:52.471Z,85.90
2023-05-04T21:53:28.971Z,86.00
2023-05-04T21:55:56.989Z,86.70
2023-05-04T21:58:24.808Z,87.20
2023-05-04T22:00:53.497Z,87.20
2023-05-04T22:06:14.022Z,87.90
2023-05-04T22:08:41.749Z,88.80
2023-05-04T22:11:10.290Z,88.60
2023-05-04T22:13:38.563Z,88.60
2023-05-04T22:16:06.524Z,88.60
2023-05-04T22:18:34.492Z,88.70
2023-05-04T22:21:02.822Z,88.70
2023-05-04T22:23:31.403Z,89.50
2023-05-04T22:25:59.997Z,89.50
2023-05-04T22:28:30.204Z,89.70
2023-05-04T22:30:59.270Z,90.00
2023-05-04T22:33:27.433Z,90.00
2023-05-04T22:35:56.839Z,90.00
2023-05-04T22:38:24.497Z,90.10
2023-05-04T22:40:52.267Z,90.20
2023-05-04T22:43:19.987Z,90.30
2023-05-04T22:45:47.871Z,90.20
2023-05-04T22:48:16.110Z,90.10
2023-05-04T22:50:44.181Z,90.00
2023-05-04T22:53:11.820Z,90.20
2023-05-04T22:55:39.446Z,90.00
2023-05-04T22:58:09.082Z,89.40
2023-05-04T23:00:37.339Z,89.80
2023-05-04T23:03:10.291Z,89.60
2023-05-04T23:05:38.599Z,89.60
2023-05-04T23:10:52.979Z,90.10
2023-05-04T23:13:21.080Z,90.10
2023-05-04T23:15:49.231Z,89.90
2023-05-04T23:18:17.142Z,89.90
2023-05-04T23:20:45.159Z,89.90
2023-05-04T23:23:14.255Z,89.90
2023-05-04T23:25:42.370Z,89.90
2023-05-04T23:28:11.164Z,89.20
2023-05-04T23:30:40.136Z,89.20
2023-05-04T23:33:08.489Z,89.30
2023-05-04T23:35:36.620Z,89.70
2023-05-04T23:38:04.505Z,89.20
2023-05-04T23:40:32.298Z,89.60
2023-05-04T23:43:00.408Z,88.70
2023-05-04T23:45:31.066Z,88.40
2023-05-04T23:47:59.674Z,88.90
2023-05-04T23:50:29.423Z,87.90
2023-05-04T23:52:57.575Z,87.10
2023-05-04T23:55:32.720Z,86.70
2023-05-04T23:58:00.734Z,86.40
